Time;durP1;ratioP1;P1;durP2;ratioP2;P2;SDS_P1;SDS_P2;PMS_P1;PMS_P2;Temp;Humidity;BMP_temperature;BMP_pressure;BME280_temperature;BME280_humidity;BME280_pressure;Samples;Min_cycle;Max_cycle;Signal;HPM_P1;HPM_P2
2021/01/23 00:00:05;;;;;;;6.28;4.93;;;;;;;4.54;65.64;99322.19;688080;28;23502;-64
2021/01/23 00:00:33;;;;;;;5.82;5.20;;;;;;;4.54;65.68;99322.19;683914;28;150010;-63
2021/01/23 00:00:54;;;;;;;5.43;4.85;;;;;;;4.55;65.73;99321.19;687917;28;46047;-65
2021/01/23 00:01:15;;;;;;;5.97;5.05;;;;;;;4.55;65.74;99321.19;689199;28;46354;-64
2021/01/23 00:01:37;;;;;;;5.28;4.78;;;;;;;4.55;65.70;99318.53;691592;28;1515;-65
2021/01/23 00:01:58;;;;;;;5.22;4.70;;;;;;;4.57;65.66;99315.69;691247;28;22663;-63
2021/01/23 00:02:20;;;;;;;6.35;5.13;;;;;;;4.57;65.73;99319.19;691239;28;23528;-64
2021/01/23 00:02:41;;;;;;;7.72;4.85;;;;;;;4.56;66.02;99309.50;690800;28;45304;-64
2021/01/23 00:03:02;;;;;;;6.30;4.65;;;;;;;4.58;65.86;99312.00;690800;28;22395;-64
2021/01/23 00:03:24;;;;;;;5.85;4.93;;;;;;;4.58;65.86;99317.34;689993;28;46327;-63
2021/01/23 00:03:45;;;;;;;6.18;5.13;;;;;;;4.58;65.91;99312.84;691309;28;22478;-64
2021/01/23 00:04:07;;;;;;;7.95;5.10;;;;;;;4.59;65.90;99316.34;690220;28;45223;-65
2021/01/23 00:04:28;;;;;;;7.78;4.65;;;;;;;4.59;65.87;99313.66;691146;28;20279;-63
2021/01/23 00:04:49;;;;;;;5.85;5.00;;;;;;;4.58;65.81;99307.47;691310;28;23337;-64
2021/01/23 00:05:11;;;;;;;6.10;4.93;;;;;;;4.58;65.99;99312.84;690018;28;46321;-64
2021/01/23 00:05:33;;;;;;;6.13;4.50;;;;;;;4.58;65.79;99310.16;690211;28;45274;-64
2021/01/23 00:05:54;;;;;;;5.88;4.38;;;;;;;4.58;65.82;99307.47;691387;28;24157;-64
2021/01/23 00:06:15;;;;;;;6.60;4.50;;;;;;;4.57;65.93;99305.81;690951;28;23480;-65
2021/01/23 00:06:36;;;;;;;6.20;4.80;;;;;;;4.58;66.02;99310.16;690458;28;46361;-65
2021/01/23 00:06:58;;;;;;;6.65;4.88;;;;;;;4.58;65.80;99307.47;691401;28;22412;-65
2021/01/23 00:07:23;;;;;;;6.68;4.78;;;;;;;4.58;65.96;99303.97;690797;28;38124;-64
2021/01/23 00:07:44;;;;;;;5.35;4.38;;;;;;;4.58;66.01;99302.13;691380;28;22492;-64
2021/01/23 00:08:06;;;;;;;5.55;4.40;;;;;;;4.59;65.86;99301.13;690970;28;28502;-64
2021/01/23 00:08:27;;;;;;;5.00;4.22;;;;;;;4.59;65.92;99306.50;690787;28;23083;-65
2021/01/23 00:08:48;;;;;;;5.18;4.30;;;;;;;4.59;66.04;99308.31;690763;28;36165;-64
2021/01/23 00:09:11;;;;;;;5.28;4.47;;;;;;;4.57;65.95;99297.78;691081;28;22410;-65
2021/01/23 00:09:32;;;;;;;5.10;4.60;;;;;;;4.57;66.04;99303.13;690373;28;46337;-65
2021/01/23 00:09:54;;;;;;;5.28;4.78;;;;;;;4.58;65.92;99306.66;690867;28;11721;-64
2021/01/23 00:10:15;;;;;;;6.65;4.50;;;;;;;4.57;65.93;99300.47;691080;28;19954;-64
2021/01/23 00:10:37;;;;;;;6.38;4.45;;;;;;;4.58;66.06;99302.13;691048;28;22653;-64
2021/01/23 00:10:58;;;;;;;5.72;4.75;;;;;;;4.59;65.92;99303.81;689881;28;45358;-63
2021/01/23 00:11:19;;;;;;;4.93;4.45;;;;;;;4.58;66.01;99296.78;690344;28;23414;-64
2021/01/23 00:11:41;;;;;;;4.90;4.50;;;;;;;4.59;65.98;99297.63;690390;28;47501;-64
2021/01/23 00:12:03;;;;;;;4.80;4.40;;;;;;;4.59;65.96;99292.25;690850;28;22401;-63
2021/01/23 00:12:24;;;;;;;4.78;4.22;;;;;;;4.58;65.97;99282.59;690586;28;46380;-64
2021/01/23 00:12:46;;;;;;;5.10;4.60;;;;;;;4.58;65.94;99285.28;691278;28;22550;-65
2021/01/23 00:13:07;;;;;;;4.63;4.22;;;;;;;4.58;65.92;99290.63;690407;28;44360;-65
2021/01/23 00:13:28;;;;;;;5.00;4.53;;;;;;;4.57;65.91;99281.75;690614;28;23422;-63
2021/01/23 00:13:49;;;;;;;5.40;4.65;;;;;;;4.56;66.06;99279.25;691255;28;22608;-64
2021/01/23 00:14:10;;;;;;;5.05;4.53;;;;;;;4.56;66.04;99282.78;690434;28;46397;-65
2021/01/23 00:14:33;;;;;;;6.05;4.38;;;;;;;4.56;66.00;99274.75;691002;28;22386;-65
2021/01/23 00:14:54;;;;;;;6.72;4.28;;;;;;;4.56;66.13;99276.56;689725;28;46574;-65
2021/01/23 00:15:16;;;;;;;6.55;4.55;;;;;;;4.56;66.07;99273.88;690284;28;40434;-65
2021/01/23 00:15:37;;;;;;;5.88;4.65;;;;;;;4.58;66.27;99280.75;691443;28;19798;-66
2021/01/23 00:15:58;;;;;;;4.97;4.50;;;;;;;4.59;66.14;99276.22;691454;28;17532;-64
2021/01/23 00:16:20;;;;;;;5.07;4.57;;;;;;;4.58;66.13;99269.22;690164;28;46238;-64
2021/01/23 00:16:41;;;;;;;5.10;4.20;;;;;;;4.57;66.13;99273.72;690824;28;24314;-65
2021/01/23 00:17:03;;;;;;;5.45;4.40;;;;;;;4.57;66.16;99275.56;690625;28;46269;-64
2021/01/23 00:17:24;;;;;;;5.10;4.60;;;;;;;4.54;66.06;99271.38;691215;28;23555;-64
2021/01/23 00:17:46;;;;;;;5.47;4.43;;;;;;;4.55;66.13;99270.41;691383;28;23412;-65
2021/01/23 00:18:07;;;;;;;5.65;4.45;;;;;;;4.55;66.21;99270.41;690733;28;36017;-65
2021/01/23 00:18:28;;;;;;;6.05;4.50;;;;;;;4.55;66.17;99270.41;691335;28;14236;-65
2021/01/23 00:18:49;;;;;;;4.43;3.95;;;;;;;4.54;66.03;99268.72;690024;28;45350;-64
2021/01/23 00:19:10;;;;;;;5.90;4.30;;;;;;;4.54;66.01;99270.56;691016;28;23397;-64
2021/01/23 00:19:32;;;;;;;4.57;4.15;;;;;;;4.51;66.16;99258.38;690873;28;22265;-65
2021/01/23 00:19:53;;;;;;;4.65;4.20;;;;;;;4.55;66.03;99269.56;690484;28;44385;-64
2021/01/23 00:20:15;;;;;;;4.85;3.90;;;;;;;4.55;65.99;99266.91;691290;28;11515;-64
2021/01/23 00:20:36;;;;;;;4.78;3.83;;;;;;;4.55;66.00;99265.03;690269;28;45939;-64
2021/01/23 00:20:58;;;;;;;3.90;3.47;;;;;;;4.55;66.13;99262.38;691146;28;17050;-65
2021/01/23 00:21:19;;;;;;;4.07;3.78;;;;;;;4.52;65.99;99257.38;690111;28;45165;-64
2021/01/23 00:21:40;;;;;;;4.57;4.18;;;;;;;4.55;66.11;99273.06;691074;28;23506;-63
2021/01/23 00:22:02;;;;;;;4.97;4.30;;;;;;;4.54;65.99;99265.22;691056;28;21661;-66
2021/01/23 00:22:24;;;;;;;4.30;3.90;;;;;;;4.54;66.06;99268.72;691049;28;20789;-64
2021/01/23 00:22:45;;;;;;;4.10;3.67;;;;;;;4.53;66.05;99267.06;690015;28;44393;-64
2021/01/23 00:23:06;;;;;;;4.30;3.90;;;;;;;4.54;66.23;99265.22;690980;28;23417;-64
2021/01/23 00:23:27;;;;;;;4.53;3.60;;;;;;;4.52;66.11;99265.41;689621;28;46398;-65
2021/01/23 00:23:49;;;;;;;4.90;3.75;;;;;;;4.52;66.24;99265.41;691569;28;16282;-63
2021/01/23 00:24:11;;;;;;;4.75;3.85;;;;;;;4.51;66.07;99267.25;691483;28;17230;-64
2021/01/23 00:24:32;;;;;;;4.10;3.70;;;;;;;4.51;66.16;99261.03;689008;28;67345;-63
2021/01/23 00:24:54;;;;;;;4.22;3.83;;;;;;;4.50;66.05;99262.06;690475;28;23535;-64
2021/01/23 00:25:15;;;;;;;4.10;3.70;;;;;;;4.51;66.18;99264.56;690688;28;44381;-64
2021/01/23 00:25:37;;;;;;;4.28;3.88;;;;;;;4.48;66.19;99254.22;691977;28;22381;-65
2021/01/23 00:25:58;;;;;;;4.53;3.75;;;;;;;4.50;66.16;99262.91;691942;28;21545;-65
2021/01/23 00:26:19;;;;;;;4.00;3.60;;;;;;;4.50;66.33;99256.72;690896;28;45274;-65
2021/01/23 00:26:42;;;;;;;3.60;3.30;;;;;;;4.50;66.32;99264.75;691591;28;21545;-63
2021/01/23 00:27:04;;;;;;;4.60;3.90;;;;;;;4.49;66.40;99261.22;689667;28;69424;-64
2021/01/23 00:27:25;;;;;;;4.70;4.18;;;;;;;4.49;66.56;99263.06;690890;28;44673;-64
2021/01/23 00:27:47;;;;;;;4.38;3.97;;;;;;;4.48;66.36;99264.91;692424;28;1650;-63
2021/01/23 00:28:08;;;;;;;4.43;4.03;;;;;;;4.49;66.27;99266.56;689399;28;5216;-64
2021/01/23 00:28:29;;;;;;;4.43;4.05;;;;;;;4.52;66.33;99270.75;686323;28;37940;-64
2021/01/23 00:28:51;;;;;;;4.30;3.90;;;;;;;4.51;66.32;99266.38;688770;28;23795;-64
2021/01/23 00:29:12;;;;;;;4.15;3.75;;;;;;;4.53;66.40;99274.25;687071;28;41247;-65
2021/01/23 00:29:34;;;;;;;4.43;3.88;;;;;;;4.53;66.39;99274.25;688659;28;19985;-65
2021/01/23 00:29:55;;;;;;;4.72;4.10;;;;;;;4.55;66.45;99275.75;689456;28;23611;-64
2021/01/23 00:30:17;;;;;;;5.13;3.90;;;;;;;4.56;66.29;99272.06;691153;28;22520;-65
2021/01/23 00:30:39;;;;;;;5.03;3.83;;;;;;;4.56;66.43;99274.75;691160;28;46345;-65
2021/01/23 00:31:00;;;;;;;4.40;4.00;;;;;;;4.57;66.34;99273.72;691855;28;21538;-65
2021/01/23 00:31:21;;;;;;;5.97;3.88;;;;;;;4.58;66.31;99275.41;691163;28;31408;-64
2021/01/23 00:31:43;;;;;;;6.53;3.85;;;;;;;4.59;66.40;99279.75;691832;28;22406;-64
2021/01/23 00:32:04;;;;;;;5.00;3.75;;;;;;;4.57;66.35;99270.22;690906;28;46289;-65
2021/01/23 00:32:26;;;;;;;6.03;3.97;;;;;;;4.59;66.33;99277.06;691635;28;23303;-64
2021/01/23 00:32:47;;;;;;;4.35;3.90;;;;;;;4.61;66.34;99277.72;690714;28;44336;-64
2021/01/23 00:33:09;;;;;;;4.40;4.00;;;;;;;4.63;66.32;99281.03;691502;28;20586;-65
2021/01/23 00:33:30;;;;;;;4.43;3.88;;;;;;;4.63;66.16;99281.03;689548;28;47375;-64
2021/01/23 00:33:51;;;;;;;5.28;4.10;;;;;;;4.64;66.26;99273.84;691648;28;22375;-65
2021/01/23 00:34:13;;;;;;;5.07;3.90;;;;;;;4.64;66.19;99276.53;691595;28;22469;-64
2021/01/23 00:34:34;;;;;;;4.43;3.70;;;;;;;4.63;66.17;99282.91;690666;28;45290;-65
2021/01/23 00:34:56;;;;;;;4.68;4.00;;;;;;;4.64;66.18;99276.53;691578;28;23415;-64
2021/01/23 00:35:17;;;;;;;4.72;3.95;;;;;;;4.64;66.17;99277.38;691326;28;23122;-62
2021/01/23 00:35:38;;;;;;;5.25;3.78;;;;;;;4.65;66.13;99278.19;691587;28;23493;-65
2021/01/23 00:35:59;;;;;;;5.03;3.90;;;;;;;4.64;65.98;99274.69;689920;28;22379;-65
2021/01/23 00:36:21;;;;;;;4.40;4.00;;;;;;;4.65;66.11;99270.16;691420;28;22457;-65
2021/01/23 00:36:42;;;;;;;4.18;3.80;;;;;;;4.64;66.02;99280.06;690336;28;45281;-65
2021/01/23 00:37:04;;;;;;;4.30;3.80;;;;;;;4.65;66.09;99271.00;691589;28;22420;-64
2021/01/23 00:37:25;;;;;;;4.30;3.90;;;;;;;4.66;65.78;99271.84;691485;28;22492;-64
2021/01/23 00:37:48;;;;;;;4.70;4.25;;;;;;;4.65;65.97;99271.00;690778;28;46342;-65
2021/01/23 00:38:09;;;;;;;4.82;3.80;;;;;;;4.65;66.03;99267.50;689485;28;69351;-65
2021/01/23 00:38:30;;;;;;;4.97;3.80;;;;;;;4.65;66.12;99262.97;691443;28;21538;-64
2021/01/23 00:38:51;;;;;;;5.00;4.25;;;;;;;4.66;66.05;99253.13;691816;28;17232;-65
2021/01/23 00:39:14;;;;;;;4.57;4.07;;;;;;;4.66;66.02;99255.81;691546;28;22355;-64
2021/01/23 00:39:35;;;;;;;5.38;4.10;;;;;;;4.65;65.95;99254.94;689693;28;69534;-64
2021/01/23 00:39:56;;;;;;;4.35;3.85;;;;;;;4.64;66.07;99244.44;691770;28;22378;-66
2021/01/23 00:40:18;;;;;;;4.30;3.90;;;;;;;4.64;66.09;99250.63;691802;28;21533;-62
2021/01/23 00:40:39;;;;;;;4.53;3.95;;;;;;;4.64;66.00;99242.59;691086;28;44765;-64
2021/01/23 00:41:01;;;;;;;4.43;3.78;;;;;;;4.66;66.00;99240.59;691631;28;23492;-65
2021/01/23 00:41:22;;;;;;;5.55;4.00;;;;;;;4.66;66.07;99237.91;690699;28;45240;-65
2021/01/23 00:41:43;;;;;;;5.13;3.92;;;;;;;4.65;66.06;99232.72;691560;28;22429;-63
2021/01/23 00:42:05;;;;;;;4.78;4.15;;;;;;;4.67;66.12;99239.59;691550;28;21565;-65
2021/01/23 00:42:26;;;;;;;4.78;3.88;;;;;;;4.67;65.99;99244.09;690201;28;46299;-64
2021/01/23 00:42:48;;;;;;;5.85;3.97;;;;;;;4.65;65.95;99236.22;691391;28;23667;-62
2021/01/23 00:43:09;;;;;;;5.38;3.90;;;;;;;4.64;65.92;99226.56;689268;28;45276;-63
2021/01/23 00:43:30;;;;;;;4.18;3.80;;;;;;;4.67;65.83;99236.06;690840;28;22416;-64
2021/01/23 00:43:52;;;;;;;4.18;3.80;;;;;;;4.65;65.97;99236.22;690505;28;46347;-65
2021/01/23 00:44:13;;;;;;;4.07;3.72;;;;;;;4.65;65.91;99235.41;691161;28;17094;-63
2021/01/23 00:44:35;;;;;;;5.70;4.10;;;;;;;4.65;65.95;99236.22;691365;28;22409;-65
2021/01/23 00:44:57;;;;;;;6.15;4.00;;;;;;;4.66;65.91;99240.59;690877;28;45356;-64
2021/01/23 00:45:18;;;;;;;4.82;3.95;;;;;;;4.66;65.92;99239.75;690829;28;46297;-64
2021/01/23 00:45:39;;;;;;;4.15;3.85;;;;;;;4.65;65.90;99246.94;691800;28;21408;-62
2021/01/23 00:46:01;;;;;;;4.25;3.88;;;;;;;4.66;65.93;99245.09;690721;28;22401;-64
2021/01/23 00:46:22;;;;;;;4.05;3.70;;;;;;;4.67;65.89;99244.09;690738;28;46672;-65
2021/01/23 00:46:43;;;;;;;4.43;4.00;;;;;;;4.66;66.01;99253.94;691441;28;21511;-64
2021/01/23 00:47:05;;;;;;;4.38;3.92;;;;;;;4.67;65.99;99252.97;690830;28;46345;-65
2021/01/23 00:47:26;;;;;;;5.38;4.25;;;;;;;4.68;66.01;99251.09;691378;28;23425;-64
2021/01/23 00:47:48;;;;;;;5.28;4.15;;;;;;;4.68;66.09;99256.44;691701;28;22478;-63
2021/01/23 00:48:11;;;;;;;4.70;4.20;;;;;;;4.68;65.98;99256.44;691107;28;46478;-65
2021/01/23 00:48:32;;;;;;;4.70;4.30;;;;;;;4.69;65.93;99264.31;689978;28;70325;-64
2021/01/23 00:48:53;;;;;;;4.43;4.00;;;;;;;4.70;65.94;99265.13;691393;28;21623;-65
2021/01/23 00:49:15;;;;;;;4.32;3.92;;;;;;;4.71;65.99;99269.47;691522;28;23531;-65
2021/01/23 00:49:36;;;;;;;4.40;4.00;;;;;;;4.70;65.93;99262.44;686748;28;46224;-63
2021/01/23 00:49:57;;;;;;;4.30;3.90;;;;;;;4.70;65.97;99267.81;688728;28;11380;-63
2021/01/23 00:50:19;;;;;;;4.50;4.10;;;;;;;4.71;65.92;99274.00;688917;28;1237;-64
2021/01/23 00:50:41;;;;;;;4.28;3.88;;;;;;;4.69;65.92;99271.50;688013;28;22391;-65
2021/01/23 00:51:03;;;;;;;4.72;4.25;;;;;;;4.70;65.79;99267.81;683781;28;68223;-65
2021/01/23 00:51:25;;;;;;;4.78;4.38;;;;;;;4.69;65.82;99275.00;684300;28;44468;-65
2021/01/23 00:51:47;;;;;;;4.82;4.43;;;;;;;4.68;65.78;99273.31;684111;28;45962;-65
2021/01/23 00:52:09;;;;;;;4.38;3.97;;;;;;;4.68;65.76;99267.97;685180;28;43773;-65
2021/01/23 00:52:31;;;;;;;4.32;3.92;;;;;;;4.68;65.77;99267.16;683587;28;44357;-65
2021/01/23 00:52:52;;;;;;;4.40;4.00;;;;;;;4.67;65.90;99269.00;683976;28;23527;-64
2021/01/23 00:53:15;;;;;;;4.60;4.20;;;;;;;4.67;65.90;99270.81;683102;28;67478;-65
2021/01/23 00:53:37;;;;;;;4.50;4.10;;;;;;;4.68;65.75;99276.00;683052;28;46261;-65
2021/01/23 00:53:59;;;;;;;4.20;3.80;;;;;;;4.69;65.92;99274.19;682842;28;22400;-65
2021/01/23 00:54:23;;;;;;;4.10;3.80;;;;;;;4.68;65.87;99267.97;681696;28;91926;-64
2021/01/23 00:54:45;;;;;;;5.85;3.80;;;;;;;4.68;65.92;99267.97;685377;28;67479;-64
2021/01/23 00:55:07;;;;;;;4.97;3.80;;;;;;;4.69;65.93;99274.19;687829;28;20600;-64
2021/01/23 00:55:33;;;;;;;4.40;3.80;;;;;;;4.69;65.91;99272.31;681687;28;137855;-65
2021/01/23 00:55:55;;;;;;;4.80;3.90;;;;;;;4.69;65.84;99277.69;686441;28;46293;-64
2021/01/23 00:56:16;;;;;;;5.43;4.00;;;;;;;4.69;65.90;99277.69;688575;28;22406;-63
2021/01/23 00:56:38;;;;;;;4.55;4.10;;;;;;;4.68;65.74;99276.00;688167;28;21855;-65
2021/01/23 00:56:59;;;;;;;4.50;4.03;;;;;;;4.69;65.93;99277.69;687552;28;46337;-65
2021/01/23 00:57:21;;;;;;;4.40;3.92;;;;;;;4.71;65.84;99277.50;689898;28;933;-64
2021/01/23 00:57:42;;;;;;;4.38;3.80;;;;;;;4.71;65.69;99285.53;690802;28;44459;-64
2021/01/23 00:58:07;;;;;;;3.97;3.58;;;;;;;4.71;65.83;99277.50;687985;28;115832;-65
2021/01/23 00:58:28;;;;;;;3.63;3.33;;;;;;;4.71;65.90;99287.38;691033;28;18722;-65
2021/01/23 00:58:50;;;;;;;4.30;3.90;;;;;;;4.70;65.68;99281.16;687351;28;44063;-65
2021/01/23 00:59:11;;;;;;;4.50;4.00;;;;;;;4.71;65.71;99290.06;688118;28;24345;-65
2021/01/23 00:59:36;;;;;;;4.38;3.97;;;;;;;4.71;65.71;99287.38;685632;28;37811;-64
2021/01/23 00:59:58;;;;;;;4.28;3.88;;;;;;;4.71;65.70;99288.19;686744;28;870;-64
2021/01/23 01:00:21;;;;;;;5.38;4.00;;;;;;;4.70;65.72;99283.84;683064;28;21365;-63
2021/01/23 01:00:44;;;;;;;6.10;3.83;;;;;;;4.68;65.67;99285.88;684927;28;15163;-65
2021/01/23 01:01:05;;;;;;;5.45;4.05;;;;;;;4.68;65.72;99286.69;686094;28;23495;-65
2021/01/23 01:01:27;;;;;;;4.25;3.85;;;;;;;4.68;65.52;99288.53;686208;28;1406;-64
2021/01/23 01:01:49;;;;;;;5.43;4.18;;;;;;;4.68;65.57;99293.91;685908;28;21518;-64
2021/01/23 01:02:26;;;;;;;4.18;3.88;;;;;;;4.66;65.58;99291.41;681471;28;137944;-64
2021/01/23 01:02:48;;;;;;;4.22;3.83;;;;;;;4.65;65.43;99297.75;687777;28;32493;-64
2021/01/23 01:03:20;;;;;;;5.70;4.07;;;;;;;4.65;65.64;99291.56;682643;28;123158;-64
2021/01/23 01:03:53;;;;;;;4.05;3.70;;;;;;;4.64;65.70;99290.75;681130;28;151825;-65
2021/01/23 01:04:15;;;;;;;4.10;3.80;;;;;;;4.64;65.63;99295.25;686921;28;46374;-66
2021/01/23 01:04:37;;;;;;;4.90;4.03;;;;;;;4.64;65.74;99297.91;688767;28;44382;-64
2021/01/23 01:04:58;;;;;;;4.95;4.28;;;;;;;4.64;65.69;99300.59;690000;28;22129;-64
2021/01/23 01:05:20;;;;;;;4.72;4.22;;;;;;;4.63;65.80;99299.75;691026;28;22578;-64
2021/01/23 01:05:41;;;;;;;5.25;4.10;;;;;;;4.61;65.91;99293.75;690823;28;46324;-65
2021/01/23 01:06:02;;;;;;;4.68;4.07;;;;;;;4.61;65.86;99295.63;691706;28;23187;-63
2021/01/23 01:06:24;;;;;;;4.47;4.07;;;;;;;4.60;65.84;99300.13;690121;28;46308;-65
2021/01/23 01:06:45;;;;;;;4.50;4.10;;;;;;;4.60;65.78;99294.75;691598;28;22389;-64
2021/01/23 01:07:07;;;;;;;6.93;4.97;;;;;;;4.61;65.91;99301.78;689495;28;44382;-64
2021/01/23 01:07:28;;;;;;;7.53;4.70;;;;;;;4.61;65.84;99292.94;690188;28;17854;-64
2021/01/23 01:07:49;;;;;;;5.93;4.07;;;;;;;4.63;65.78;99305.13;691479;28;22373;-65
2021/01/23 01:08:10;;;;;;;4.55;4.10;;;;;;;4.64;65.85;99301.44;690759;28;46379;-64
2021/01/23 01:08:32;;;;;;;4.75;4.35;;;;;;;4.66;65.84;99303.94;691443;28;23474;-65
2021/01/23 01:08:53;;;;;;;4.70;4.30;;;;;;;4.64;65.86;99295.25;691223;28;22482;-65
2021/01/23 01:09:15;;;;;;;4.60;4.20;;;;;;;4.65;65.89;99308.44;691436;28;23596;-65
2021/01/23 01:09:37;;;;;;;4.40;4.00;;;;;;;4.66;65.73;99301.28;691462;28;22852;-64
2021/01/23 01:09:59;;;;;;;4.53;4.13;;;;;;;4.67;65.75;99311.78;690130;28;46330;-64
2021/01/23 01:10:20;;;;;;;4.50;4.10;;;;;;;4.68;65.68;99304.59;690529;28;46393;-64
2021/01/23 01:10:45;;;;;;;4.78;4.25;;;;;;;4.68;65.69;99304.59;691605;28;20673;-64
2021/01/23 01:11:06;;;;;;;4.65;4.10;;;;;;;4.69;65.75;99300.91;687331;28;137934;-63
2021/01/23 01:11:38;;;;;;;4.50;4.10;;;;;;;4.69;65.55;99306.28;688754;28;98878;-64
2021/01/23 01:11:59;;;;;;;4.30;3.90;;;;;;;4.70;65.60;99305.25;691417;28;22533;-64
2021/01/23 01:12:20;;;;;;;5.53;4.10;;;;;;;4.72;65.53;99302.41;691295;28;29816;-64
2021/01/23 01:12:43;;;;;;;4.18;3.80;;;;;;;4.72;65.78;99297.91;692224;28;1250;-64
2021/01/23 01:13:05;;;;;;;4.53;4.13;;;;;;;4.73;65.46;99307.56;691153;28;21633;-63
2021/01/23 01:13:26;;;;;;;4.57;4.18;;;;;;;4.73;65.42;99302.22;690831;28;29737;-65
2021/01/23 01:13:47;;;;;;;6.20;4.50;;;;;;;4.74;65.49;99308.44;690842;28;21446;-65
2021/01/23 01:14:08;;;;;;;5.15;4.18;;;;;;;4.75;65.45;99310.06;689723;28;45285;-64
2021/01/23 01:14:30;;;;;;;4.47;4.05;;;;;;;4.74;65.43;99297.72;691403;28;20928;-65
2021/01/23 01:14:51;;;;;;;4.90;4.20;;;;;;;4.75;65.41;99304.72;690948;28;46299;-65
2021/01/23 01:15:13;;;;;;;4.28;3.97;;;;;;;4.74;65.11;99303.91;691536;28;23450;-64
2021/01/23 01:15:34;;;;;;;4.50;4.10;;;;;;;4.75;65.31;99294.03;691633;28;24336;-64
2021/01/23 01:15:55;;;;;;;4.57;4.18;;;;;;;4.75;65.32;99302.91;691515;28;21139;-65
2021/01/23 01:16:17;;;;;;;4.65;4.15;;;;;;;4.75;65.15;99304.72;690714;28;46515;-64
2021/01/23 01:16:38;;;;;;;5.70;4.40;;;;;;;4.75;65.38;99308.25;691481;28;23039;-65
2021/01/23 01:16:59;;;;;;;6.10;4.57;;;;;;;4.74;65.27;99297.72;690563;28;46204;-64
2021/01/23 01:17:20;;;;;;;5.53;4.43;;;;;;;4.75;65.25;99296.69;691456;28;23299;-63
2021/01/23 01:17:42;;;;;;;6.25;4.50;;;;;;;4.74;65.23;99300.41;691391;28;20538;-65
2021/01/23 01:18:04;;;;;;;5.97;4.82;;;;;;;4.75;65.29;99299.38;690594;28;46319;-64
2021/01/23 01:18:25;;;;;;;5.28;4.65;;;;;;;4.76;65.44;99298.38;690813;28;21538;-65
2021/01/23 01:18:46;;;;;;;6.47;4.53;;;;;;;4.74;65.29;99295.06;690763;28;45503;-64
2021/01/23 01:19:08;;;;;;;5.45;4.53;;;;;;;4.76;65.23;99298.38;691315;28;23452;-65
2021/01/23 01:19:29;;;;;;;5.18;4.68;;;;;;;4.75;65.39;99296.69;690607;28;28863;-65
2021/01/23 01:19:51;;;;;;;5.60;4.70;;;;;;;4.76;65.21;99295.69;691717;28;18769;-64
2021/01/23 01:20:12;;;;;;;6.63;5.03;;;;;;;4.73;65.26;99294.19;690471;28;46255;-65
2021/01/23 01:20:34;;;;;;;6.38;5.07;;;;;;;4.73;65.42;99296.03;690764;28;23452;-64
2021/01/23 01:21:03;;;;;;;4.55;4.05;;;;;;;4.69;65.36;99293.72;690249;28;61398;-64
2021/01/23 01:21:24;;;;;;;5.22;4.22;;;;;;;4.68;65.30;99296.56;691194;28;18122;-65
2021/01/23 01:21:46;;;;;;;4.97;4.40;;;;;;;4.67;65.32;99295.75;690515;28;47352;-64
2021/01/23 01:22:07;;;;;;;5.28;4.13;;;;;;;4.66;65.49;99293.25;690961;28;21467;-64
2021/01/23 01:22:28;;;;;;;4.50;4.10;;;;;;;4.64;65.47;99296.09;692054;28;835;-64
2021/01/23 01:22:49;;;;;;;6.13;4.70;;;;;;;4.64;65.55;99288.06;691452;28;22361;-64
2021/01/23 01:23:11;;;;;;;6.25;5.00;;;;;;;4.64;65.45;99290.75;691524;28;23514;-64
2021/01/23 01:23:32;;;;;;;7.18;5.38;;;;;;;4.64;65.67;99292.56;690396;28;44384;-64
2021/01/23 01:23:54;;;;;;;7.53;5.30;;;;;;;4.63;65.61;99288.25;691138;28;23467;-64
2021/01/23 01:24:15;;;;;;;6.22;5.05;;;;;;;4.65;65.63;99291.56;691651;28;21731;-63
2021/01/23 01:24:37;;;;;;;6.28;5.03;;;;;;;4.65;65.67;99291.56;690484;28;45345;-65
2021/01/23 01:24:59;;;;;;;6.20;5.28;;;;;;;4.64;65.71;99282.72;690662;28;43166;-64
2021/01/23 01:25:20;;;;;;;6.97;4.97;;;;;;;4.63;65.80;99282.91;691313;28;23467;-65
2021/01/23 01:25:41;;;;;;;5.88;4.80;;;;;;;4.65;65.73;99292.38;687862;28;46291;-64
2021/01/23 01:26:03;;;;;;;7.13;4.95;;;;;;;4.65;65.73;99287.03;688459;28;22492;-64
2021/01/23 01:26:24;;;;;;;7.63;5.00;;;;;;;4.67;65.85;99294.88;687433;28;47168;-65
2021/01/23 01:26:45;;;;;;;5.75;4.63;;;;;;;4.66;65.69;99283.38;688579;28;21547;-64
2021/01/23 01:27:07;;;;;;;5.43;4.68;;;;;;;4.66;65.68;99294.06;688726;28;22380;-64
2021/01/23 01:27:28;;;;;;;6.95;4.60;;;;;;;4.66;65.84;99285.22;688818;28;23479;-65
2021/01/23 01:27:50;;;;;;;5.10;4.30;;;;;;;4.67;65.92;99287.72;691025;28;44409;-64
2021/01/23 01:28:11;;;;;;;4.88;4.35;;;;;;;4.67;65.76;99290.41;691469;28;23520;-62
2021/01/23 01:28:32;;;;;;;4.60;4.20;;;;;;;4.67;65.70;99287.72;690482;28;46479;-65
2021/01/23 01:28:53;;;;;;;5.85;4.55;;;;;;;4.68;65.68;99291.22;690756;28;20172;-64
2021/01/23 01:29:15;;;;;;;5.70;4.90;;;;;;;4.68;65.61;99288.53;691587;28;22530;-64
2021/01/23 01:29:37;;;;;;;5.20;4.40;;;;;;;4.66;65.73;99283.38;690321;28;45260;-65
2021/01/23 01:29:58;;;;;;;5.10;4.00;;;;;;;4.66;65.82;99287.91;688640;28;23096;-64
2021/01/23 01:30:20;;;;;;;4.60;4.10;;;;;;;4.69;65.80;99298.25;687578;28;46294;-62
2021/01/23 01:30:41;;;;;;;4.60;4.20;;;;;;;4.68;65.63;99292.03;687610;28;45901;-65
2021/01/23 01:31:03;;;;;;;4.88;4.10;;;;;;;4.70;65.70;99294.53;688472;28;22402;-65
2021/01/23 01:31:24;;;;;;;4.50;4.10;;;;;;;4.69;65.90;99296.41;687357;28;46334;-64
2021/01/23 01:31:46;;;;;;;5.68;4.40;;;;;;;4.69;65.80;99295.56;688611;28;932;-64
2021/01/23 01:32:07;;;;;;;6.65;4.60;;;;;;;4.67;65.78;99292.22;687527;28;44468;-63
2021/01/23 01:32:29;;;;;;;4.95;4.40;;;;;;;4.66;65.81;99294.06;688675;28;23471;-65
2021/01/23 01:32:50;;;;;;;4.60;4.20;;;;;;;4.66;65.74;99298.59;687809;28;45278;-64
2021/01/23 01:33:11;;;;;;;4.82;4.35;;;;;;;4.66;65.86;99293.25;688598;28;21564;-64
2021/01/23 01:33:32;;;;;;;4.90;4.40;;;;;;;4.67;65.76;99292.22;688544;28;21550;-65
2021/01/23 01:33:54;;;;;;;4.68;4.18;;;;;;;4.68;65.89;99302.75;688216;28;23479;-65
2021/01/23 01:34:15;;;;;;;5.35;4.72;;;;;;;4.69;65.79;99300.91;690091;28;45255;-65
2021/01/23 01:34:37;;;;;;;4.90;4.45;;;;;;;4.68;65.68;99299.25;691808;28;6532;-64
2021/01/23 01:34:58;;;;;;;4.80;3.95;;;;;;;4.66;65.78;99291.41;690504;28;34799;-61
2021/01/23 01:35:19;;;;;;;4.75;4.30;;;;;;;4.68;65.79;99297.41;690871;28;21543;-62
2021/01/23 01:35:41;;;;;;;4.88;4.38;;;;;;;4.69;65.74;99292.91;691747;28;22900;-65
2021/01/23 01:36:03;;;;;;;5.40;4.55;;;;;;;4.70;65.70;99294.53;690635;28;44498;-65
2021/01/23 01:36:24;;;;;;;4.82;4.43;;;;;;;4.70;65.79;99297.22;690437;28;44422;-65
2021/01/23 01:36:45;;;;;;;4.82;4.13;;;;;;;4.69;65.67;99292.91;691509;28;24404;-64
2021/01/23 01:37:06;;;;;;;5.40;4.40;;;;;;;4.68;65.64;99296.56;691230;28;22389;-65
2021/01/23 01:37:28;;;;;;;4.95;4.45;;;;;;;4.67;65.84;99290.41;691526;28;22401;-64
2021/01/23 01:37:49;;;;;;;5.93;4.60;;;;;;;4.67;65.70;99294.88;690264;28;45366;-63
2021/01/23 01:38:12;;;;;;;5.80;4.50;;;;;;;4.67;65.74;99295.75;691963;28;1123;-63
2021/01/23 01:38:34;;;;;;;6.35;4.55;;;;;;;4.67;65.82;99290.41;689318;28;45264;-64
2021/01/23 01:38:56;;;;;;;5.93;4.35;;;;;;;4.66;65.74;99291.41;689872;28;46354;-65
2021/01/23 01:39:17;;;;;;;5.05;4.55;;;;;;;4.65;65.77;99289.72;689309;28;39899;-64
2021/01/23 01:39:39;;;;;;;5.13;4.63;;;;;;;4.65;65.76;99289.72;689874;28;22444;-65
2021/01/23 01:40:00;;;;;;;5.70;4.60;;;;;;;4.65;65.91;99294.25;690068;28;46302;-65
2021/01/23 01:40:22;;;;;;;6.15;4.75;;;;;;;4.62;65.85;99290.06;691503;28;22525;-64
2021/01/23 01:40:43;;;;;;;5.22;4.65;;;;;;;4.61;65.89;99288.41;690910;28;46368;-65
2021/01/23 01:41:04;;;;;;;5.45;4.70;;;;;;;4.61;65.88;99291.09;691641;28;22403;-65
2021/01/23 01:41:26;;;;;;;5.40;4.65;;;;;;;4.61;65.98;99291.09;690342;28;45267;-65
2021/01/23 01:41:47;;;;;;;5.25;4.50;;;;;;;4.59;66.04;99281.56;692207;28;932;-66
2021/01/23 01:42:09;;;;;;;5.80;4.38;;;;;;;4.61;66.01;99282.25;691377;28;22425;-66
2021/01/23 01:42:30;;;;;;;5.13;4.55;;;;;;;4.60;66.09;99286.75;690643;28;40353;-65
2021/01/23 01:42:52;;;;;;;4.85;4.45;;;;;;;4.60;66.13;99285.91;690835;28;45273;-65
2021/01/23 01:43:13;;;;;;;4.90;4.50;;;;;;;4.59;66.19;99287.78;691651;28;22399;-65
2021/01/23 01:43:34;;;;;;;5.07;4.57;;;;;;;4.59;66.21;99287.78;691614;28;21708;-65
2021/01/23 01:43:56;;;;;;;5.63;4.53;;;;;;;4.58;66.25;99283.41;691262;28;22413;-63
2021/01/23 01:44:17;;;;;;;5.65;4.70;;;;;;;4.60;66.27;99288.59;691131;28;29962;-65
2021/01/23 01:44:38;;;;;;;5.60;4.47;;;;;;;4.61;66.24;99284.91;691529;28;15719;-65
2021/01/23 01:45:00;;;;;;;4.40;4.05;;;;;;;4.60;66.14;99284.06;690744;28;40276;-64